Austin Reinauer — WCX8055 — position and weather

sailwx.info

Track history (hours):
 
Tides and Currents Weather Stations Pressure Air Temp Water Temp Dewpoint Dewpoint Depression Visibility Wind Speed Wind Dir Waves Ship Positions

Austin Reinauer

Owner: REINAUER TRANSPORTATION CO. LLC, STATEN ISLAND, NY. More information available from US FCC via Universal Licensing System and Coast Guard Vessel Documentation Center.

Last reported at 2018-Jun-18 13:00 UTC. Time now 2018-Jun-18 13:12 UTC.
Position N 39°49' W 075°24'.

Length 33 m; draft 6 m.

Type: . MMSI: 366739920.

Date/timePositionNaut miles runAvg speedWind from/ knotsBaromVisibWave heightAir tempDewpointWater temp
2018-Jun-18 13:00N 39°49' W 075°24'0 0.0
2018-Jun-18 12:30N 39°49' W 075°24'0 0.0
2018-Jun-18 12:00N 39°49' W 075°24'0 0.0
2018-Jun-18 11:30N 39°49' W 075°24'0 0.0
2018-Jun-18 11:00N 39°49' W 075°24'0 0.0
2018-Jun-18 10:30N 39°49' W 075°24'0 0.0
2018-Jun-18 10:01N 39°49' W 075°24'0 0.0
2018-Jun-18 09:31N 39°49' W 075°24'0 0.0
2018-Jun-18 09:00N 39°49' W 075°24'0 0.0
2018-Jun-18 08:30N 39°49' W 075°24'0 0.0
2018-Jun-18 08:00N 39°49' W 075°24'0 0.0
2018-Jun-18 07:30N 39°49' W 075°24'0 0.0
2018-Jun-18 07:00N 39°49' W 075°24'0 0.0
2018-Jun-18 06:30N 39°49' W 075°24'0 0.0
2018-Jun-18 06:00N 39°49' W 075°24'0 0.0
2018-Jun-18 05:31N 39°49' W 075°24'0 0.0
2018-Jun-18 05:00N 39°49' W 075°24'0 0.0
2018-Jun-18 04:30N 39°49' W 075°24'0 0.0
2018-Jun-18 04:00N 39°49' W 075°24'0 0.0
2018-Jun-18 03:30N 39°49' W 075°24'0 0.0
2018-Jun-18 03:00N 39°49' W 075°24'0 0.0
2018-Jun-18 02:30N 39°49' W 075°24'0 0.0
2018-Jun-18 02:00N 39°49' W 075°24'0 0.0
2018-Jun-18 01:30N 39°49' W 075°24'0 0.0
2018-Jun-18 01:00N 39°49' W 075°24'0 0.0
2018-Jun-18 00:30N 39°49' W 075°24'0 0.0
2018-Jun-18 00:00N 39°49' W 075°24'0 0.0
2018-Jun-17 23:30N 39°49' W 075°24'0 0.0
2018-Jun-17 23:00N 39°49' W 075°24'0 0.0
2018-Jun-17 22:30N 39°49' W 075°24'0 0.0
2018-Jun-17 22:00N 39°49' W 075°24'0 0.0
2018-Jun-17 21:30N 39°49' W 075°24'0 0.0
2018-Jun-17 21:00N 39°49' W 075°24'0 0.0
2018-Jun-17 20:30N 39°49' W 075°24'0 0.0
2018-Jun-17 20:01N 39°49' W 075°24'0 0.0
2018-Jun-17 19:31N 39°49' W 075°24'0 0.0
2018-Jun-17 19:00N 39°49' W 075°24'0 0.0
2018-Jun-17 18:30N 39°49' W 075°24'0 0.0
2018-Jun-17 18:00N 39°49' W 075°24'0 0.0
2018-Jun-17 17:30N 39°49' W 075°24'0 0.7
2018-Jun-17 17:00N 39°49' W 075°25'510.0
2018-Jun-17 16:30N 39°45' W 075°29'510.9
2018-Jun-17 16:00N 39°40' W 075°32'5 9.4
2018-Jun-17 15:30N 39°36' W 075°34'5 9.9
2018-Jun-17 15:00N 39°31' W 075°33'5 9.3
2018-Jun-17 14:30N 39°26' W 075°32'5 9.9
2018-Jun-17 14:00N 39°22' W 075°28'5 9.4
2018-Jun-17 13:30N 39°19' W 075°24'4 9.0
2018-Jun-17 13:01N 39°16' W 075°20'5 9.2
2018-Jun-17 12:30N 39°12' W 075°17'5 8.9
2018-Jun-17 11:58N 39°08' W 075°13'32 5.9
2018-Jun-17 06:33N 39°06' W 074°32'110.1
2018-Jun-17 06:29N 39°06' W 074°32'510.3
2018-Jun-17 06:00N 39°10' W 074°28'610.2
2018-Jun-17 05:28N 39°14' W 074°23'510.1
2018-Jun-17 05:00N 39°18' W 074°19'510.2
2018-Jun-17 04:30N 39°21' W 074°15'510.0
2018-Jun-17 04:00N 39°25' W 074°11'510.2
2018-Jun-17 03:29N 39°30' W 074°08'510.4
2018-Jun-17 02:58N 39°35' W 074°05'510.2
2018-Jun-17 02:30N 39°39' W 074°02'510.0
2018-Jun-17 02:00N 39°44' W 073°59'43 9.6
2018-Jun-16 21:32N 40°27' W 073°54'010.3
2018-Jun-16 21:30N 40°27' W 073°54'710.6
2018-Jun-16 20:49N 40°32' W 074°01'412.7
2018-Jun-16 20:30N 40°35' W 074°02'611.8
2018-Jun-16 20:00N 40°41' W 074°02'611.4
2018-Jun-16 19:30N 40°46' W 073°57'4710.7
2018-Jun-16 15:06N 41°08' W 073°02'111.4
2018-Jun-16 15:00N 41°08' W 073°01'611.2
2018-Jun-16 14:30N 41°12' W 072°55'48 1.4
2018-Jun-15 04:02N 40°48' W 073°51'0 8.0
2018-Jun-15 03:59N 40°48' W 073°51'3 6.8
2018-Jun-15 03:30N 40°47' W 073°55'3 6.3
2018-Jun-15 03:01N 40°45' W 073°58'2 4.5
2018-Jun-15 02:31N 40°43' W 073°58'4 7.4
2018-Jun-15 02:01N 40°40' W 074°02'0 0.3
2018-Jun-15 01:31N 40°40' W 074°02'0 0.0
2018-Jun-15 01:00N 40°40' W 074°02'0 0.0
2018-Jun-15 00:30N 40°40' W 074°02'0 0.0
2018-Jun-15 00:01N 40°40' W 074°02'0 0.0
2018-Jun-14 23:30N 40°40' W 074°02'0 0.3
2018-Jun-14 23:00N 40°40' W 074°02'2 4.5
2018-Jun-14 22:30N 40°39' W 074°05'2 4.6
2018-Jun-14 22:00N 40°39' W 074°08'3 5.9
2018-Jun-14 21:30N 40°38' W 074°12'1 1.1
2018-Jun-14 21:00N 40°38' W 074°12'0 0.0
2018-Jun-14 20:31N 40°38' W 074°12'0 0.0
2018-Jun-14 20:01N 40°38' W 074°12'0 0.0
2018-Jun-14 19:30N 40°38' W 074°12'0 0.0
2018-Jun-14 19:00N 40°38' W 074°12'0 0.0
2018-Jun-14 18:30N 40°38' W 074°12'0 0.0
2018-Jun-14 18:00N 40°38' W 074°12'0 0.0
2018-Jun-14 17:30N 40°38' W 074°12'0 0.0
2018-Jun-14 17:01N 40°38' W 074°12'0 0.2
2018-Jun-14 16:30N 40°38' W 074°12'0 0.0
2018-Jun-14 16:00N 40°38' W 074°12'0 0.1
2018-Jun-14 11:33N 40°38' W 074°12'0 8.2
2018-Jun-14 11:30N 40°38' W 074°12'3 6.2
2018-Jun-14 11:00N 40°38' W 074°08'0 0.0
2018-Jun-14 10:30N 40°38' W 074°08'0 0.0
2018-Jun-14 10:00N 40°38' W 074°08'0 0.0
2018-Jun-14 09:30N 40°38' W 074°08'0 0.0
2018-Jun-14 09:00N 40°38' W 074°08'0 0.0
2018-Jun-14 08:30N 40°38' W 074°08'0 0.0
2018-Jun-14 08:01N 40°38' W 074°08'0 0.0
2018-Jun-14 07:31N 40°38' W 074°08'0 0.0
2018-Jun-14 07:01N 40°38' W 074°08'0 0.0
2018-Jun-14 06:30N 40°38' W 074°08'0 0.0
2018-Jun-14 06:00N 40°38' W 074°08'0 0.0
2018-Jun-14 05:30N 40°38' W 074°08'0 0.0
2018-Jun-14 04:58N 40°38' W 074°08'0 0.0
2018-Jun-14 04:21N 40°38' W 074°08'0 0.0
2018-Jun-14 03:59N 40°38' W 074°08'0 0.0
2018-Jun-14 03:30N 40°38' W 074°08'0 0.0
2018-Jun-14 03:00N 40°38' W 074°08'0 0.0
2018-Jun-14 02:30N 40°38' W 074°08'0 0.0
2018-Jun-14 02:00N 40°38' W 074°08'0 0.0
2018-Jun-14 01:30N 40°38' W 074°08'0 0.0
2018-Jun-14 01:00N 40°38' W 074°08'0 0.0
2018-Jun-14 00:30N 40°38' W 074°08'0 0.0
2018-Jun-14 00:01N 40°38' W 074°08'0 0.0
2018-Jun-13 23:31N 40°38' W 074°08'0 0.0
2018-Jun-13 23:00N 40°38' W 074°08'0 0.0
2018-Jun-13 22:29N 40°38' W 074°08'0 0.0
2018-Jun-13 22:00N 40°38' W 074°08'0 0.0
2018-Jun-13 21:31N 40°38' W 074°08'0 0.0
2018-Jun-13 21:00N 40°38' W 074°08'0 0.0
2018-Jun-13 20:28N 40°38' W 074°08'0 0.0
2018-Jun-13 20:00N 40°38' W 074°08'0 0.0
2018-Jun-13 19:30N 40°38' W 074°08'0 0.0
2018-Jun-13 19:01N 40°38' W 074°08'0 0.0
2018-Jun-13 18:31N 40°38' W 074°08'0 0.0
2018-Jun-13 18:00N 40°38' W 074°08'0 0.0
2018-Jun-13 17:30N 40°38' W 074°08'0 0.0
2018-Jun-13 16:55N 40°38' W 074°08'0 0.0
2018-Jun-13 16:30N 40°38' W 074°08'0 0.0
2018-Jun-13 16:00N 40°38' W 074°08'0 0.0
2018-Jun-13 15:30N 40°38' W 074°08'0 0.0
2018-Jun-13 14:59N 40°38' W 074°08'3 4.1
2018-Jun-13 14:22N 40°39' W 074°11'1 3.9
2018-Jun-13 14:00N 40°38' W 074°12'0 0.7
2018-Jun-13 13:27N 40°38' W 074°12'2 5.0
2018-Jun-13 13:01N 40°39' W 074°09'3 6.4
2018-Jun-13 12:31N 40°39' W 074°05'3 5.1
2018-Jun-13 12:01N 40°41' W 074°02'4 7.4
2018-Jun-13 11:30N 40°43' W 073°58'48 8.2
2018-Jun-13 05:39N 41°07' W 073°04'2 9.6
2018-Jun-13 05:23N 41°08' W 073°01'5 9.8
2018-Jun-13 04:54N 41°11' W 072°56'57 1.6
2018-Jun-11 17:25N 40°42' W 074°00'3 2.5
2018-Jun-11 16:05N 40°39' W 074°03'0 0.2
2018-Jun-11 15:55N 40°39' W 074°03'0 0.4
2018-Jun-11 15:25N 40°39' W 074°03'0 0.1
2018-Jun-11 15:00N 40°39' W 074°03'3 5.5
2018-Jun-11 14:30N 40°39' W 074°07'3 5.5
2018-Jun-11 13:52N 40°39' W 074°11'1 0.0
2018-Jun-10 14:59N 40°38' W 074°12'3 6.9
2018-Jun-10 14:31N 40°39' W 074°08'9 8.9
2018-Jun-10 13:30N 40°43' W 073°58'4710.5
2018-Jun-10 09:05N 41°03' W 073°02'511.3
2018-Jun-10 08:36N 41°04' W 072°55'111.4
2018-Jun-10 08:29N 41°04' W 072°53'611.2
2018-Jun-10 07:58N 41°06' W 072°46'510.9
2018-Jun-10 07:30N 41°07' W 072°39'510.4
2018-Jun-10 07:00N 41°08' W 072°32'510.0
2018-Jun-10 06:30N 41°10' W 072°26'5 9.0
2018-Jun-10 06:00N 41°12' W 072°21'4 8.1
2018-Jun-10 05:30N 41°13' W 072°16'4 8.6
2018-Jun-10 05:00N 41°14' W 072°10'6 8.2
2018-Jun-10 04:13N 41°14' W 072°01'2 8.9
2018-Jun-10 04:00N 41°15' W 071°59'81 8.4
2018-Jun-09 18:18N 42°02' W 070°31'510.9
2018-Jun-09 17:49N 42°07' W 070°33'310.8
2018-Jun-09 17:31N 42°10' W 070°35'510.7
2018-Jun-09 17:00N 42°15' W 070°39'510.8
2018-Jun-09 16:30N 42°19' W 070°44'510.6
2018-Jun-09 16:00N 42°22' W 070°49'9 9.3
2018-Jun-09 15:01N 42°21' W 071°01'3 5.3
2018-Jun-09 14:30N 42°23' W 071°03'0 0.1
2018-Jun-09 14:00N 42°23' W 071°03'0 0.0
2018-Jun-09 13:30N 42°23' W 071°03'0 0.0
2018-Jun-09 13:00N 42°23' W 071°03'0 0.0
2018-Jun-09 12:30N 42°23' W 071°03'0 0.0
2018-Jun-09 12:01N 42°23' W 071°03'0 0.0
2018-Jun-09 11:30N 42°23' W 071°03'0 0.0
2018-Jun-09 11:00N 42°23' W 071°03'0 0.0
2018-Jun-09 10:30N 42°23' W 071°03'0 0.0
2018-Jun-09 10:00N 42°23' W 071°03'0 0.0
2018-Jun-09 09:30N 42°23' W 071°03'0 0.0
2018-Jun-09 09:00N 42°23' W 071°03'0 0.0
2018-Jun-09 08:30N 42°23' W 071°03'0 0.0
2018-Jun-09 08:00N 42°23' W 071°03'0 0.0
2018-Jun-09 07:31N 42°23' W 071°03'0 0.0
2018-Jun-09 07:01N 42°23' W 071°03'0 0.0
2018-Jun-09 06:30N 42°23' W 071°03'0 0.0
2018-Jun-09 06:00N 42°23' W 071°03'0 0.0
2018-Jun-09 05:30N 42°23' W 071°03'0 0.0
2018-Jun-09 05:00N 42°23' W 071°03'0 0.0
2018-Jun-09 04:30N 42°23' W 071°03'0 0.0
2018-Jun-09 04:00N 42°23' W 071°03'0 0.0
2018-Jun-09 03:30N 42°23' W 071°03'0 0.0
2018-Jun-09 03:01N 42°23' W 071°03'0 0.0
2018-Jun-09 02:30N 42°23' W 071°03'0 0.0
2018-Jun-09 02:00N 42°23' W 071°03'0 0.3
2018-Jun-09 01:31N 42°23' W 071°03'3 5.0
2018-Jun-09 01:00N 42°21' W 071°01'4 8.1
2018-Jun-09 00:30N 42°21' W 070°56'5 9.1
2018-Jun-09 00:01N 42°23' W 070°50'510.0
2018-Jun-08 23:30N 42°20' W 070°45'510.0
2018-Jun-08 23:00N 42°16' W 070°40'510.1
2018-Jun-08 22:30N 42°12' W 070°36'510.1
2018-Jun-08 21:58N 42°07' W 070°32'50 6.5
2018-Jun-08 14:20N 41°33' W 071°20'410.1
2018-Jun-08 13:54N 41°37' W 071°18'410.0
2018-Jun-08 13:30N 41°41' W 071°19'  
Track history (hours):
 
Tides and Currents Weather Stations Pressure Air Temp Water Temp Dewpoint Dewpoint Depression Visibility Wind Speed Wind Dir Waves Ship Positions

Austin Reinauer

Owner: REINAUER TRANSPORTATION CO. LLC, STATEN ISLAND, NY. More information available from US FCC via Universal Licensing System and Coast Guard Vessel Documentation Center.

Last reported at 2018-Jun-18 13:00 UTC. Time now 2018-Jun-18 13:12 UTC.
Position N 39°49' W 075°24'.

Length 33 m; draft 6 m.

Type: . MMSI: 366739920.

Date/timePositionNaut miles runAvg speedWind from/ knotsBaromVisibWave heightAir tempDewpointWater temp
2018-Jun-18 13:00N 39°49' W 075°24'0 0.0
2018-Jun-18 12:30N 39°49' W 075°24'0 0.0
2018-Jun-18 12:00N 39°49' W 075°24'0 0.0
2018-Jun-18 11:30N 39°49' W 075°24'0 0.0
2018-Jun-18 11:00N 39°49' W 075°24'0 0.0
2018-Jun-18 10:30N 39°49' W 075°24'0 0.0
2018-Jun-18 10:01N 39°49' W 075°24'0 0.0
2018-Jun-18 09:31N 39°49' W 075°24'0 0.0
2018-Jun-18 09:00N 39°49' W 075°24'0 0.0
2018-Jun-18 08:30N 39°49' W 075°24'0 0.0
2018-Jun-18 08:00N 39°49' W 075°24'0 0.0
2018-Jun-18 07:30N 39°49' W 075°24'0 0.0
2018-Jun-18 07:00N 39°49' W 075°24'0 0.0
2018-Jun-18 06:30N 39°49' W 075°24'0 0.0
2018-Jun-18 06:00N 39°49' W 075°24'0 0.0
2018-Jun-18 05:31N 39°49' W 075°24'0 0.0
2018-Jun-18 05:00N 39°49' W 075°24'0 0.0
2018-Jun-18 04:30N 39°49' W 075°24'0 0.0
2018-Jun-18 04:00N 39°49' W 075°24'0 0.0
2018-Jun-18 03:30N 39°49' W 075°24'0 0.0
2018-Jun-18 03:00N 39°49' W 075°24'0 0.0
2018-Jun-18 02:30N 39°49' W 075°24'0 0.0
2018-Jun-18 02:00N 39°49' W 075°24'0 0.0
2018-Jun-18 01:30N 39°49' W 075°24'0 0.0
2018-Jun-18 01:00N 39°49' W 075°24'0 0.0
2018-Jun-18 00:30N 39°49' W 075°24'0 0.0
2018-Jun-18 00:00N 39°49' W 075°24'0 0.0
2018-Jun-17 23:30N 39°49' W 075°24'0 0.0
2018-Jun-17 23:00N 39°49' W 075°24'0 0.0
2018-Jun-17 22:30N 39°49' W 075°24'0 0.0
2018-Jun-17 22:00N 39°49' W 075°24'0 0.0
2018-Jun-17 21:30N 39°49' W 075°24'0 0.0
2018-Jun-17 21:00N 39°49' W 075°24'0 0.0
2018-Jun-17 20:30N 39°49' W 075°24'0 0.0
2018-Jun-17 20:01N 39°49' W 075°24'0 0.0
2018-Jun-17 19:31N 39°49' W 075°24'0 0.0
2018-Jun-17 19:00N 39°49' W 075°24'0 0.0
2018-Jun-17 18:30N 39°49' W 075°24'0 0.0
2018-Jun-17 18:00N 39°49' W 075°24'0 0.0
2018-Jun-17 17:30N 39°49' W 075°24'0 0.7
2018-Jun-17 17:00N 39°49' W 075°25'510.0
2018-Jun-17 16:30N 39°45' W 075°29'510.9
2018-Jun-17 16:00N 39°40' W 075°32'5 9.4
2018-Jun-17 15:30N 39°36' W 075°34'5 9.9
2018-Jun-17 15:00N 39°31' W 075°33'5 9.3
2018-Jun-17 14:30N 39°26' W 075°32'5 9.9
2018-Jun-17 14:00N 39°22' W 075°28'5 9.4
2018-Jun-17 13:30N 39°19' W 075°24'4 9.0
2018-Jun-17 13:01N 39°16' W 075°20'5 9.2
2018-Jun-17 12:30N 39°12' W 075°17'5 8.9
2018-Jun-17 11:58N 39°08' W 075°13'32 5.9
2018-Jun-17 06:33N 39°06' W 074°32'110.1
2018-Jun-17 06:29N 39°06' W 074°32'510.3
2018-Jun-17 06:00N 39°10' W 074°28'610.2
2018-Jun-17 05:28N 39°14' W 074°23'510.1
2018-Jun-17 05:00N 39°18' W 074°19'510.2
2018-Jun-17 04:30N 39°21' W 074°15'510.0
2018-Jun-17 04:00N 39°25' W 074°11'510.2
2018-Jun-17 03:29N 39°30' W 074°08'510.4
2018-Jun-17 02:58N 39°35' W 074°05'510.2
2018-Jun-17 02:30N 39°39' W 074°02'510.0
2018-Jun-17 02:00N 39°44' W 073°59'43 9.6
2018-Jun-16 21:32N 40°27' W 073°54'010.3
2018-Jun-16 21:30N 40°27' W 073°54'710.6
2018-Jun-16 20:49N 40°32' W 074°01'412.7
2018-Jun-16 20:30N 40°35' W 074°02'611.8
2018-Jun-16 20:00N 40°41' W 074°02'611.4
2018-Jun-16 19:30N 40°46' W 073°57'4710.7
2018-Jun-16 15:06N 41°08' W 073°02'111.4
2018-Jun-16 15:00N 41°08' W 073°01'611.2
2018-Jun-16 14:30N 41°12' W 072°55'48 1.4
2018-Jun-15 04:02N 40°48' W 073°51'0 8.0
2018-Jun-15 03:59N 40°48' W 073°51'3 6.8
2018-Jun-15 03:30N 40°47' W 073°55'3 6.3
2018-Jun-15 03:01N 40°45' W 073°58'2 4.5
2018-Jun-15 02:31N 40°43' W 073°58'4 7.4
2018-Jun-15 02:01N 40°40' W 074°02'0 0.3
2018-Jun-15 01:31N 40°40' W 074°02'0 0.0
2018-Jun-15 01:00N 40°40' W 074°02'0 0.0
2018-Jun-15 00:30N 40°40' W 074°02'0 0.0
2018-Jun-15 00:01N 40°40' W 074°02'0 0.0
2018-Jun-14 23:30N 40°40' W 074°02'0 0.3
2018-Jun-14 23:00N 40°40' W 074°02'2 4.5
2018-Jun-14 22:30N 40°39' W 074°05'2 4.6
2018-Jun-14 22:00N 40°39' W 074°08'3 5.9
2018-Jun-14 21:30N 40°38' W 074°12'1 1.1
2018-Jun-14 21:00N 40°38' W 074°12'0 0.0
2018-Jun-14 20:31N 40°38' W 074°12'0 0.0
2018-Jun-14 20:01N 40°38' W 074°12'0 0.0
2018-Jun-14 19:30N 40°38' W 074°12'0 0.0
2018-Jun-14 19:00N 40°38' W 074°12'0 0.0
2018-Jun-14 18:30N 40°38' W 074°12'0 0.0
2018-Jun-14 18:00N 40°38' W 074°12'0 0.0
2018-Jun-14 17:30N 40°38' W 074°12'0 0.0
2018-Jun-14 17:01N 40°38' W 074°12'0 0.2
2018-Jun-14 16:30N 40°38' W 074°12'0 0.0
2018-Jun-14 16:00N 40°38' W 074°12'0 0.1
2018-Jun-14 11:33N 40°38' W 074°12'0 8.2
2018-Jun-14 11:30N 40°38' W 074°12'3 6.2
2018-Jun-14 11:00N 40°38' W 074°08'0 0.0
2018-Jun-14 10:30N 40°38' W 074°08'0 0.0
2018-Jun-14 10:00N 40°38' W 074°08'0 0.0
2018-Jun-14 09:30N 40°38' W 074°08'0 0.0
2018-Jun-14 09:00N 40°38' W 074°08'0 0.0
2018-Jun-14 08:30N 40°38' W 074°08'0 0.0
2018-Jun-14 08:01N 40°38' W 074°08'0 0.0
2018-Jun-14 07:31N 40°38' W 074°08'0 0.0
2018-Jun-14 07:01N 40°38' W 074°08'0 0.0
2018-Jun-14 06:30N 40°38' W 074°08'0 0.0
2018-Jun-14 06:00N 40°38' W 074°08'0 0.0
2018-Jun-14 05:30N 40°38' W 074°08'0 0.0
2018-Jun-14 04:58N 40°38' W 074°08'0 0.0
2018-Jun-14 04:21N 40°38' W 074°08'0 0.0
2018-Jun-14 03:59N 40°38' W 074°08'0 0.0
2018-Jun-14 03:30N 40°38' W 074°08'0 0.0
2018-Jun-14 03:00N 40°38' W 074°08'0 0.0
2018-Jun-14 02:30N 40°38' W 074°08'0 0.0
2018-Jun-14 02:00N 40°38' W 074°08'0 0.0
2018-Jun-14 01:30N 40°38' W 074°08'0 0.0
2018-Jun-14 01:00N 40°38' W 074°08'0 0.0
2018-Jun-14 00:30N 40°38' W 074°08'0 0.0
2018-Jun-14 00:01N 40°38' W 074°08'0 0.0
2018-Jun-13 23:31N 40°38' W 074°08'0 0.0
2018-Jun-13 23:00N 40°38' W 074°08'0 0.0
2018-Jun-13 22:29N 40°38' W 074°08'0 0.0
2018-Jun-13 22:00N 40°38' W 074°08'0 0.0
2018-Jun-13 21:31N 40°38' W 074°08'0 0.0
2018-Jun-13 21:00N 40°38' W 074°08'0 0.0
2018-Jun-13 20:28N 40°38' W 074°08'0 0.0
2018-Jun-13 20:00N 40°38' W 074°08'0 0.0
2018-Jun-13 19:30N 40°38' W 074°08'0 0.0
2018-Jun-13 19:01N 40°38' W 074°08'0 0.0
2018-Jun-13 18:31N 40°38' W 074°08'0 0.0
2018-Jun-13 18:00N 40°38' W 074°08'0 0.0
2018-Jun-13 17:30N 40°38' W 074°08'0 0.0
2018-Jun-13 16:55N 40°38' W 074°08'0 0.0
2018-Jun-13 16:30N 40°38' W 074°08'0 0.0
2018-Jun-13 16:00N 40°38' W 074°08'0 0.0
2018-Jun-13 15:30N 40°38' W 074°08'0 0.0
2018-Jun-13 14:59N 40°38' W 074°08'3 4.1
2018-Jun-13 14:22N 40°39' W 074°11'1 3.9
2018-Jun-13 14:00N 40°38' W 074°12'0 0.7
2018-Jun-13 13:27N 40°38' W 074°12'2 5.0
2018-Jun-13 13:01N 40°39' W 074°09'3 6.4
2018-Jun-13 12:31N 40°39' W 074°05'3 5.1
2018-Jun-13 12:01N 40°41' W 074°02'4 7.4
2018-Jun-13 11:30N 40°43' W 073°58'48 8.2
2018-Jun-13 05:39N 41°07' W 073°04'2 9.6
2018-Jun-13 05:23N 41°08' W 073°01'5 9.8
2018-Jun-13 04:54N 41°11' W 072°56'57 1.6
2018-Jun-11 17:25N 40°42' W 074°00'3 2.5
2018-Jun-11 16:05N 40°39' W 074°03'0 0.2
2018-Jun-11 15:55N 40°39' W 074°03'0 0.4
2018-Jun-11 15:25N 40°39' W 074°03'0 0.1
2018-Jun-11 15:00N 40°39' W 074°03'3 5.5
2018-Jun-11 14:30N 40°39' W 074°07'3 5.5
2018-Jun-11 13:52N 40°39' W 074°11'1 0.0
2018-Jun-10 14:59N 40°38' W 074°12'3 6.9
2018-Jun-10 14:31N 40°39' W 074°08'9 8.9
2018-Jun-10 13:30N 40°43' W 073°58'4710.5
2018-Jun-10 09:05N 41°03' W 073°02'511.3
2018-Jun-10 08:36N 41°04' W 072°55'111.4
2018-Jun-10 08:29N 41°04' W 072°53'611.2
2018-Jun-10 07:58N 41°06' W 072°46'510.9
2018-Jun-10 07:30N 41°07' W 072°39'510.4
2018-Jun-10 07:00N 41°08' W 072°32'510.0
2018-Jun-10 06:30N 41°10' W 072°26'5 9.0
2018-Jun-10 06:00N 41°12' W 072°21'4 8.1
2018-Jun-10 05:30N 41°13' W 072°16'4 8.6
2018-Jun-10 05:00N 41°14' W 072°10'6 8.2
2018-Jun-10 04:13N 41°14' W 072°01'2 8.9
2018-Jun-10 04:00N 41°15' W 071°59'81 8.4
2018-Jun-09 18:18N 42°02' W 070°31'510.9
2018-Jun-09 17:49N 42°07' W 070°33'310.8
2018-Jun-09 17:31N 42°10' W 070°35'510.7
2018-Jun-09 17:00N 42°15' W 070°39'510.8
2018-Jun-09 16:30N 42°19' W 070°44'510.6
2018-Jun-09 16:00N 42°22' W 070°49'9 9.3
2018-Jun-09 15:01N 42°21' W 071°01'3 5.3
2018-Jun-09 14:30N 42°23' W 071°03'0 0.1
2018-Jun-09 14:00N 42°23' W 071°03'0 0.0
2018-Jun-09 13:30N 42°23' W 071°03'0 0.0
2018-Jun-09 13:00N 42°23' W 071°03'0 0.0
2018-Jun-09 12:30N 42°23' W 071°03'0 0.0
2018-Jun-09 12:01N 42°23' W 071°03'0 0.0
2018-Jun-09 11:30N 42°23' W 071°03'0 0.0
2018-Jun-09 11:00N 42°23' W 071°03'0 0.0
2018-Jun-09 10:30N 42°23' W 071°03'0 0.0
2018-Jun-09 10:00N 42°23' W 071°03'0 0.0
2018-Jun-09 09:30N 42°23' W 071°03'0 0.0
2018-Jun-09 09:00N 42°23' W 071°03'0 0.0
2018-Jun-09 08:30N 42°23' W 071°03'0 0.0
2018-Jun-09 08:00N 42°23' W 071°03'0 0.0
2018-Jun-09 07:31N 42°23' W 071°03'0 0.0
2018-Jun-09 07:01N 42°23' W 071°03'0 0.0
2018-Jun-09 06:30N 42°23' W 071°03'0 0.0
2018-Jun-09 06:00N 42°23' W 071°03'0 0.0
2018-Jun-09 05:30N 42°23' W 071°03'0 0.0
2018-Jun-09 05:00N 42°23' W 071°03'0 0.0
2018-Jun-09 04:30N 42°23' W 071°03'0 0.0
2018-Jun-09 04:00N 42°23' W 071°03'0 0.0
2018-Jun-09 03:30N 42°23' W 071°03'0 0.0
2018-Jun-09 03:01N 42°23' W 071°03'0 0.0
2018-Jun-09 02:30N 42°23' W 071°03'0 0.0
2018-Jun-09 02:00N 42°23' W 071°03'0 0.3
2018-Jun-09 01:31N 42°23' W 071°03'3 5.0
2018-Jun-09 01:00N 42°21' W 071°01'4 8.1
2018-Jun-09 00:30N 42°21' W 070°56'5 9.1
2018-Jun-09 00:01N 42°23' W 070°50'510.0
2018-Jun-08 23:30N 42°20' W 070°45'510.0
2018-Jun-08 23:00N 42°16' W 070°40'510.1
2018-Jun-08 22:30N 42°12' W 070°36'510.1
2018-Jun-08 21:58N 42°07' W 070°32'50 6.5
2018-Jun-08 14:20N 41°33' W 071°20'410.1
2018-Jun-08 13:54N 41°37' W 071°18'410.0
2018-Jun-08 13:30N 41°41' W 071°19'  

Dump ship's entire track history